Etusivu
METAR-TAF:

METAR-TAF

Lentoasemat :

Philip Billard Municipal Airport

Topeka, Kansas, Yhdysvallat

Leveyspiiri: 39-04-21N, Pituuspiiri: 095-37-33W, korkeus merenpinnasta: 268 m

Tämänhetkinen sää

Tämä raportti tehtiin 42 minuuttia sitten, kello 06.53 UTC
Tuuli 3 kn lännestä/luoteesta
Lämpötila 8°C
Kosteus 76%
Ilmanpaine 1019 hPa
Näkyvyys: 16.1 km
selkeää

METAR: KTOP 290653Z AUTO 29003KT 10SM CLR 08/04 A3009 RMK AO2 SLP189 T00830044

Aika: 02:35 (07:35 UTC)

Sääennuste

Tämä raportti tehtiin 2 tuntia ja 15 minuuttia sitten, kello 05.20 UTC
Ennuste voimassa 29. päivästä klo 06 UTC - 30. päivään klo 06 UTC
Tuuli 4 kn lännestä/luoteesta
Näkyvyys: 10 km
Muutamia pilviä 7000 ft:n korkeudessa
From 29. päivästä klo 1800 UTC
Tuuli 10 kn lännestä puuskistuen 20 kn:hen
Näkyvyys: 10 km
Hajanaisia pilviä 10000 ft:n korkeudessa

TAF: KTOP 290520Z 2906/3006 30004KT P6SM FEW070 FM291800 28010G20KT P6SM SCT100

Säähavainnot ja -ennusteet yli 4000 lentoasemalta (METAR- ja TAF-raportit).

Käytössä olevat sääasemat on merkitty karttaan keltaisilla ja punaisilla pisteillä.

Aseta hiiri pisteen päälle nähdäksesi sääaseman nimen.

Klikkaa sitten nähdäksesi säähavainnot ja -ennusteet.

Kartan vaihtaminen: klikkaa mustalla rastilla varustettuja vihreitä pisteitä, niin voit zoomata sisään; viivalla varustettua vihreää pistettä, niin voit zoomata ulos tai vihreitä nuolia, niin pääset viereisille kartoille.


METAR-TAF: